Aérodrome :
LOGIN :

S'inscrire | Disclaimer

   EN    FR    IT 

 










Légende :    VFR   VFR Marginal   IFR   IFR Intensif   IFR Très Intensif
Visi : 
Plafond : 
>= 8 km
>= 3000ft
5 à 8 km
1000 à 3000 ft
1500m à 5 km
500 à 1000 ft
800 à 1500m
200 à 500 ft
< 800m
< 200 ft
Symboles :   Orages  Brouillard  Fortes neiges  Fortes précipitations  Vent > 20 kt
SIGMETs :   Divers  Orages  Givrage  Turbulence  Onde Orograph.  Cendres Volcan.







- Altitude de l'aérodrome : 645 ft
- Code IATA : DLE
- Voir les cartes d'approche


LFGJ - Dole Tavaux

DERNIER METAR :
  • 231600Z AUTO 26011KT CAVOK 23/09 Q1017 NOSIG

METARs EXPIRÉS :
  • 231530Z AUTO 26010KT 210V300 CAVOK 23/09 Q1017 NOSIG
  • 231500Z AUTO 25012KT CAVOK 23/09 Q1018 NOSIG
  • 231430Z AUTO 25013KT CAVOK 23/08 Q1018 NOSIG
  • 231400Z AUTO 24015KT CAVOK 24/09 Q1018 NOSIG
  • 231330Z AUTO 24014KT CAVOK 24/10 Q1019 NOSIG

TAF TAF LFGJ
Valide du 23 à 15h jusqu'au 24 à 00h UTC


231400Z 2315/2324 24010KT 9999 FEW040 BKN070
TEMPO 2315/2318 25012G22KT
Pas de NOTAMs connus pour ce terrain.



MET'MAP, la Météo Aéronautique d'un coup d'oeil ! - Copyright ORBIFLY Décembre 2007 - Disclaimer

ORBIFLY MET'MAP TEAM :

Programmation & Développement : Alexandra Zaïnal
Conception & Développement : Baudouin d'Aumeries
Co-Programmation & Développement : Marc-Olivier Méhu
Soutien technique & logistique : Manuel Goepfert

Contact : metmap@orbifly.com




SOURCES & CREDITS :

   NOAA